メインページ
METAR-TAF:

METAR-TAF

空港 :

レゾリュート, ヌナブト準州, カナダ

緯度: 74-43N, 経度: 094-59W, 海抜: 67m

現時点の気象観測

当レポートは53分前の11:00(UTC)に作成
北東の風 19kt
気温 -22°C
湿度 76%
気圧 1028 hPa
視程: 24.1km
高度3500ftの雲はほとんどない
高度25000ftの千切れ雲あり

METAR: CYRB 231100Z 04019KT 15SM FEW035 BKN250 M22/M25 A3037 RMK SC2CI4 SC LENT S SLP297

時間: 06:53 (11:53 UTC)

予報

当レポートは15分前の11:38(UTC)に作成
予報は23日の 12時(UTC)から 24日の 12時(UTC)まで有効
北東の風 15kt
視程: 10km
高度3000ftの雲はほとんどない
高度25000ftの千切れ雲あり
23日の 12時(UTC)から 23日の 24時(UTC)まで一時的に
視程: 6.4km
高度2000ftの曇り
小雪
24日の 0000時(UTC)から
北東の風 12kt
視程: 10km
高度2000ftの雲は散在している

TAF: CYRB 231138Z 2312/2412 04015KT P6SM FEW030 BKN250 TEMPO 2312/2324 4SM -SN OVC020 FM240000 04012KT P6SM SCT020 RMK NXT FCST BY 231800Z

4,000以上の空港の気象観測と天気予報(METAR報とTAF報)

利用可能な観測所は地図上に黄色い丸と赤い丸で示す。

丸の上にカーソルを重ねると観測所名を参照できる。

次にクリックすると気象観測と天気予報を参照できる。

マップの切り替え:黒色「×」印の緑ボタンをクリックして拡大、「-」印の緑ボタンをクリックして縮小、緑色の三角印をクリックして隣りの地図に切り替え


METAR-TAF: